Terminal Aerodrome Forecast
Issued by NWS

Home | Current Version | Previous Version | Text Only | Print | Product List | Glossary On
Versions: 1 2 3 4 5 6 7 8 9 10 11 12 13 14 15 16 17 18 19 20 21
000
FTUS43 KGRR 031305 AAA
TAFAZO
TAF AMD
KAZO 031305Z 0313/0412 20004KT P6SM BKN007
     FM031400 22006KT P6SM SCT010 BKN020
     FM031500 28013G21KT P6SM SCT050
     FM040000 26005KT P6SM BKN080=

USA.gov is the U.S. government's official web portal to all federal, state and local government web resources and services.